Time;durP1;ratioP1;P1;durP2;ratioP2;P2;SDS_P1;SDS_P2;PMS_P1;PMS_P2;Temp;Humidity;BMP_temperature;BMP_pressure;BME280_temperature;BME280_humidity;BME280_pressure;Samples;Min_cycle;Max_cycle;Signal;HPM_P1;HPM_P2
2023/07/09 00:02:12;;;;;;;7.35;4.00;;;26.50;99.90;;;;;;1915842;73;21067;-80
2023/07/09 00:05:04;;;;;;;5.35;4.45;;;26.50;99.90;;;;;;1926546;73;21094;-89
2023/07/09 00:10:37;;;;;;;6.33;4.47;;;26.40;99.90;;;;;;1936631;72;22197;-86
2023/07/09 00:13:30;;;;;;;6.42;4.22;;;26.40;99.90;;;;;;1892987;75;21153;-86
2023/07/09 00:16:24;;;;;;;6.92;4.17;;;26.40;99.90;;;;;;1897681;75;21171;-86
2023/07/09 00:22:01;;;;;;;6.65;4.12;;;26.40;99.90;;;;;;1946648;72;22259;-86
2023/07/09 00:24:56;;;;;;;9.95;4.97;;;26.30;99.90;;;;;;1888915;75;21167;-87
2023/07/09 00:30:27;;;;;;;9.65;5.78;;;26.10;99.90;;;;;;1940257;72;22636;-86
2023/07/09 00:33:19;;;;;;;8.50;4.55;;;26.00;99.90;;;;;;1891047;75;21123;-86
2023/07/09 00:36:16;;;;;;;9.43;4.37;;;25.90;99.90;;;;;;1896909;75;21098;-86
2023/07/09 00:41:48;;;;;;;7.67;4.20;;;25.80;99.90;;;;;;1943018;72;22138;-86
2023/07/09 00:44:43;;;;;;;8.30;4.58;;;25.90;99.90;;;;;;1901642;75;21096;-86
2023/07/09 00:50:41;;;;;;;7.10;4.65;;;26.00;99.90;;;;;;1960038;72;22178;-86
2023/07/09 00:56:19;;;;;;;7.53;4.40;;;26.00;99.90;;;;;;1938101;72;22236;-86
2023/07/09 01:01:55;;;;;;;8.48;4.75;;;26.00;99.90;;;;;;1942799;72;22189;-85
2023/07/09 01:04:47;;;;;;;7.90;4.62;;;26.00;99.90;;;;;;1890089;75;21102;-86
2023/07/09 01:07:39;;;;;;;5.80;4.35;;;25.90;99.90;;;;;;1908603;75;21125;-85
2023/07/09 01:10:31;;;;;;;6.20;4.45;;;25.90;99.90;;;;;;1907983;75;21138;-85
2023/07/09 01:16:15;;;;;;;6.50;4.60;;;25.80;99.90;;;;;;1942874;72;22157;-86
2023/07/09 01:19:10;;;;;;;6.83;4.58;;;25.80;99.90;;;;;;1917204;73;21098;-86
2023/07/09 01:22:03;;;;;;;6.75;4.17;;;25.70;99.90;;;;;;1940207;73;21138;-86
2023/07/09 01:25:01;;;;;;;7.78;4.40;;;25.70;99.90;;;;;;1926426;73;21192;-86
2023/07/09 01:30:35;;;;;;;6.47;4.53;;;25.70;99.90;;;;;;1942523;72;22302;-86
2023/07/09 01:33:27;;;;;;;9.65;4.25;;;25.70;99.90;;;;;;1886845;75;21171;-87
2023/07/09 01:36:23;;;;;;;7.10;4.50;;;25.70;99.90;;;;;;1887478;75;21154;-87
2023/07/09 01:54:58;;;;;;;5.83;4.03;;;25.50;99.90;;;;;;1911328;72;22287;-85
2023/07/09 02:00:31;;;;;;;7.95;4.22;;;25.40;99.90;;;;;;1930072;72;22205;-86
2023/07/09 02:06:08;;;;;;;6.50;4.37;;;25.40;99.90;;;;;;1931313;72;22204;-85
2023/07/09 02:08:55;;;;;;;6.53;4.50;;;25.30;99.90;;;;;;1911477;74;21093;-86
2023/07/09 02:11:47;;;;;;;8.20;4.65;;;25.40;99.90;;;;;;1888936;75;21126;-85
2023/07/09 02:14:38;;;;;;;5.65;4.60;;;25.30;99.90;;;;;;1900200;74;21172;-86
2023/07/09 02:17:29;;;;;;;6.42;4.33;;;25.30;99.90;;;;;;1903621;75;21212;-85
2023/07/09 02:20:21;;;;;;;8.60;4.47;;;25.30;99.90;;;;;;1914779;75;21191;-85
2023/07/09 02:23:14;;;;;;;7.15;4.10;;;25.30;99.90;;;;;;1910884;75;21171;-85
2023/07/09 02:26:05;;;;;;;7.62;4.53;;;25.10;99.90;;;;;;1900462;75;21624;-85
2023/07/09 02:28:59;;;;;;;7.22;4.20;;;25.10;99.90;;;;;;1895390;74;21058;-85
2023/07/09 02:31:54;;;;;;;6.47;4.12;;;25.10;99.90;;;;;;1883736;75;21145;-85
2023/07/09 02:34:48;;;;;;;6.17;3.98;;;25.10;99.90;;;;;;1886870;75;21104;-86
2023/07/09 02:37:38;;;;;;;7.30;4.58;;;25.10;99.90;;;;;;1887187;75;21183;-86
2023/07/09 02:43:10;;;;;;;8.18;4.53;;;25.10;99.90;;;;;;1948263;72;22138;-85
2023/07/09 02:48:46;;;;;;;7.97;4.35;;;25.10;99.90;;;;;;1940735;72;22165;-85
2023/07/09 02:51:39;;;;;;;6.25;4.10;;;25.10;99.90;;;;;;1912258;75;21189;-86
2023/07/09 02:54:31;;;;;;;7.58;4.60;;;25.10;99.90;;;;;;1905128;75;21128;-86
2023/07/09 02:57:23;;;;;;;9.15;4.78;;;25.10;99.90;;;;;;1894762;75;21106;-85
2023/07/09 03:00:16;;;;;;;4.35;3.95;;;25.10;99.90;;;;;;1890410;75;21108;-86
2023/07/09 03:05:47;;;;;;;8.58;4.30;;;25.00;99.90;;;;;;1940923;72;22162;-85
2023/07/09 03:08:39;;;;;;;6.37;4.10;;;25.00;99.90;;;;;;1897619;75;21091;-85
2023/07/09 03:11:32;;;;;;;7.75;4.15;;;24.90;99.90;;;;;;1903295;75;21115;-86
2023/07/09 03:14:24;;;;;;;7.30;4.30;;;24.90;99.90;;;;;;1897912;74;21094;-86
2023/07/09 03:17:15;;;;;;;5.35;4.40;;;24.80;99.90;;;;;;1893852;75;21044;-86
2023/07/09 03:20:09;;;;;;;6.08;4.17;;;24.70;99.90;;;;;;1881310;75;21117;-86
2023/07/09 03:25:43;;;;;;;8.25;3.92;;;24.70;99.90;;;;;;1942759;72;22251;-85
2023/07/09 03:31:18;;;;;;;5.42;3.90;;;24.70;99.90;;;;;;1953043;72;22102;-85
2023/07/09 03:34:10;;;;;;;6.72;4.15;;;24.60;99.90;;;;;;1903742;74;21055;-85
2023/07/09 03:37:01;;;;;;;6.35;4.10;;;24.60;99.90;;;;;;1893243;75;21094;-85
2023/07/09 03:42:37;;;;;;;7.22;3.98;;;24.60;99.90;;;;;;1955905;72;22209;-85
2023/07/09 03:45:29;;;;;;;5.42;4.35;;;24.60;99.90;;;;;;1921591;73;21134;-85
2023/07/09 03:50:59;;;;;;;5.65;4.45;;;24.50;99.90;;;;;;1936256;72;22258;-84
2023/07/09 03:56:32;;;;;;;7.62;4.60;;;24.50;99.90;;;;;;1943405;72;22256;-85
2023/07/09 04:02:04;;;;;;;8.28;3.90;;;24.50;99.90;;;;;;1956143;72;22230;-85
2023/07/09 04:04:55;;;;;;;7.60;4.10;;;24.50;99.90;;;;;;1921884;73;21086;-85
2023/07/09 04:10:26;;;;;;;8.03;4.40;;;24.40;99.90;;;;;;1952205;72;22145;-85
2023/07/09 04:13:17;;;;;;;5.12;3.72;;;24.40;99.90;;;;;;1898561;75;21161;-85
2023/07/09 04:16:09;;;;;;;5.90;3.75;;;24.40;99.90;;;;;;1911858;75;21127;-87
2023/07/09 04:19:00;;;;;;;5.65;3.92;;;24.40;99.90;;;;;;1904607;75;21108;-85
2023/07/09 04:21:52;;;;;;;7.08;3.77;;;24.40;99.90;;;;;;1894679;75;21147;-84
2023/07/09 04:24:45;;;;;;;7.40;4.42;;;24.40;99.90;;;;;;1892402;75;21208;-85
2023/07/09 04:27:36;;;;;;;6.97;4.37;;;24.30;99.90;;;;;;1907894;75;21103;-85
2023/07/09 04:33:06;;;;;;;7.05;4.40;;;24.30;99.90;;;;;;1937697;72;22271;-86
2023/07/09 04:35:58;;;;;;;8.35;4.17;;;24.20;99.90;;;;;;1901731;75;21116;-84
2023/07/09 04:38:49;;;;;;;6.00;4.25;;;24.40;99.90;;;;;;1905806;75;21036;-84
2023/07/09 04:41:41;;;;;;;5.85;4.65;;;24.40;99.90;;;;;;1894015;75;21120;-83
2023/07/09 04:47:12;;;;;;;6.37;4.62;;;24.40;99.90;;;;;;1947879;72;22186;-83
2023/07/09 04:50:04;;;;;;;5.83;4.42;;;24.30;99.90;;;;;;1931985;73;21179;-85
2023/07/09 04:52:55;;;;;;;6.75;4.53;;;24.30;99.90;;;;;;1930467;73;21121;-83
2023/07/09 04:55:46;;;;;;;6.95;4.92;;;24.30;99.90;;;;;;1928097;73;21098;-84
2023/07/09 05:01:16;;;;;;;7.67;4.60;;;24.30;99.90;;;;;;1929513;72;22216;-83
2023/07/09 05:04:08;;;;;;;9.93;4.37;;;24.30;99.90;;;;;;1897885;75;21195;-82
2023/07/09 05:06:59;;;;;;;5.05;4.20;;;24.40;99.90;;;;;;1906295;75;21055;-83
2023/07/09 05:09:51;;;;;;;9.50;4.85;;;24.30;99.90;;;;;;1900435;75;21172;-83
2023/07/09 05:12:51;;;;;;;9.63;4.55;;;24.20;99.90;;;;;;1900097;75;21173;-83
2023/07/09 05:15:45;;;;;;;7.87;4.00;;;24.30;99.90;;;;;;1894985;75;21099;-83
2023/07/09 05:18:37;;;;;;;7.70;4.40;;;24.30;99.90;;;;;;1888379;75;21172;-81
2023/07/09 05:24:08;;;;;;;8.05;4.10;;;24.20;99.90;;;;;;1932074;72;22289;-79
2023/07/09 05:27:00;;;;;;;6.45;4.12;;;24.30;99.90;;;;;;1909624;74;21561;-80
2023/07/09 05:29:51;;;;;;;9.75;4.20;;;24.30;99.90;;;;;;1901677;75;21109;-80
2023/07/09 05:35:23;;;;;;;7.50;3.98;;;24.40;99.90;;;;;;1917699;72;22396;-80
2023/07/09 05:38:14;;;;;;;6.50;4.05;;;24.40;99.90;;;;;;1892433;75;21174;-80
2023/07/09 05:41:07;;;;;;;10.03;4.33;;;24.50;99.90;;;;;;1916976;75;21106;-80
2023/07/09 05:43:59;;;;;;;7.67;4.30;;;24.50;99.90;;;;;;1898523;75;21143;-81
2023/07/09 05:46:50;;;;;;;5.70;3.72;;;24.50;99.90;;;;;;1897366;75;21184;-80
2023/07/09 05:49:42;;;;;;;5.65;4.60;;;24.50;99.90;;;;;;1902804;75;21140;-82
2023/07/09 05:52:33;;;;;;;5.08;4.00;;;24.60;99.90;;;;;;1880514;75;21577;-82
2023/07/09 05:58:03;;;;;;;5.75;4.05;;;24.60;99.90;;;;;;1928078;72;22232;-82
2023/07/09 06:00:57;;;;;;;6.12;3.80;;;24.60;99.90;;;;;;1897042;75;21183;-83
2023/07/09 06:06:27;;;;;;;7.30;4.12;;;24.60;99.90;;;;;;1934349;72;22237;-82
2023/07/09 06:12:01;;;;;;;5.80;4.05;;;24.80;99.90;;;;;;1946627;72;22579;-82
2023/07/09 06:14:53;;;;;;;4.92;3.90;;;24.90;99.90;;;;;;1890971;75;21106;-82
2023/07/09 06:17:44;;;;;;;5.92;3.80;;;24.90;99.90;;;;;;1894687;75;21170;-83
2023/07/09 06:20:35;;;;;;;5.65;3.87;;;24.90;99.90;;;;;;1893376;75;21082;-83
2023/07/09 06:26:06;;;;;;;5.97;4.08;;;25.00;99.90;;;;;;1936477;72;22145;-82
2023/07/09 06:31:40;;;;;;;8.48;4.37;;;25.10;99.90;;;;;;1951173;72;22261;-82
2023/07/09 06:34:31;;;;;;;5.70;3.50;;;25.10;99.90;;;;;;1920524;73;21089;-82
2023/07/09 06:37:22;;;;;;;6.60;4.12;;;25.30;99.90;;;;;;1918463;73;21162;-82
2023/07/09 06:42:52;;;;;;;5.47;3.58;;;25.40;99.90;;;;;;1926397;72;22296;-82
2023/07/09 06:45:52;;;;;;;6.75;5.00;;;25.50;99.90;;;;;;1894933;75;21109;-83
2023/07/09 06:48:43;;;;;;;7.12;3.90;;;25.50;99.90;;;;;;1885888;74;21158;-83
2023/07/09 06:51:35;;;;;;;8.08;3.77;;;25.50;99.90;;;;;;1896577;75;21133;-83
2023/07/09 06:54:26;;;;;;;7.05;4.03;;;25.60;99.90;;;;;;1898731;75;21055;-82
2023/07/09 06:57:17;;;;;;;5.37;3.58;;;25.70;99.90;;;;;;1904997;75;21203;-83
2023/07/09 07:00:11;;;;;;;8.10;4.12;;;25.70;99.90;;;;;;1894242;74;21117;-82
2023/07/09 07:05:48;;;;;;;7.45;3.87;;;25.90;99.90;;;;;;1949127;72;22192;-81
2023/07/09 07:11:19;;;;;;;7.35;4.20;;;26.10;99.90;;;;;;1926787;72;22253;-82
2023/07/09 07:14:10;;;;;;;6.58;4.00;;;26.20;99.90;;;;;;1886185;74;21094;-82
2023/07/09 07:17:02;;;;;;;6.00;4.17;;;26.20;99.90;;;;;;1872750;75;21163;-82
2023/07/09 07:19:53;;;;;;;6.67;3.72;;;26.20;99.90;;;;;;1888874;74;21098;-83
2023/07/09 07:22:45;;;;;;;4.95;3.67;;;26.30;99.90;;;;;;1872109;75;21100;-82
2023/07/09 07:28:20;;;;;;;6.15;3.90;;;26.30;99.90;;;;;;1946525;72;22645;-82
2023/07/09 07:31:11;;;;;;;4.97;3.58;;;26.30;99.90;;;;;;1917070;75;21436;-82
2023/07/09 07:34:03;;;;;;;4.95;3.70;;;26.40;99.90;;;;;;1927399;73;21075;-82
2023/07/09 07:36:55;;;;;;;5.05;4.15;;;26.40;99.90;;;;;;1927808;73;21159;-82
2023/07/09 07:39:46;;;;;;;7.35;3.60;;;26.50;99.90;;;;;;1917065;73;21142;-82
2023/07/09 07:42:38;;;;;;;5.58;3.70;;;26.60;99.90;;;;;;1932990;73;21125;-82
2023/07/09 07:45:29;;;;;;;4.55;3.20;;;26.70;99.90;;;;;;1914423;74;21173;-82
2023/07/09 07:51:04;;;;;;;8.75;3.77;;;26.80;99.90;;;;;;1941533;72;22598;-81
2023/07/09 07:53:56;;;;;;;4.85;3.37;;;26.80;99.90;;;;;;1906885;75;21330;-85
2023/07/09 07:59:26;;;;;;;5.40;4.08;;;26.90;99.90;;;;;;1947126;72;22161;-79
2023/07/09 08:02:18;;;;;;;5.58;3.95;;;27.00;99.90;;;;;;1917233;73;21152;-79
2023/07/09 08:05:10;;;;;;;6.25;3.95;;;27.00;99.90;;;;;;1925724;73;21147;-79
2023/07/09 08:10:41;;;;;;;7.08;4.05;;;27.20;99.90;;;;;;1941709;72;22438;-80
2023/07/09 08:16:12;;;;;;;6.78;4.05;;;27.30;99.90;;;;;;1943707;72;22149;-79
2023/07/09 08:19:03;;;;;;;5.83;3.60;;;27.40;99.90;;;;;;1912403;73;21216;-79
2023/07/09 08:21:55;;;;;;;8.13;4.00;;;27.50;99.90;;;;;;1895597;74;21102;-79
2023/07/09 08:24:50;;;;;;;7.95;3.72;;;27.60;99.90;;;;;;1920191;73;21098;-79
2023/07/09 08:30:22;;;;;;;7.10;3.72;;;27.80;99.90;;;;;;1922914;72;22255;-79
2023/07/09 08:33:14;;;;;;;5.70;3.20;;;27.90;99.90;;;;;;1912613;74;21188;-79
2023/07/09 08:36:06;;;;;;;5.97;3.45;;;28.00;99.90;;;;;;1914166;75;21104;-79
2023/07/09 08:38:57;;;;;;;6.72;3.58;;;28.00;99.90;;;;;;1906580;73;21188;-79
2023/07/09 08:41:52;;;;;;;4.55;3.27;;;28.00;99.90;;;;;;1909782;73;21172;-80
2023/07/09 08:50:42;;;;;;;5.70;3.45;;;28.30;99.90;;;;;;1952043;72;22224;-79
2023/07/09 08:56:14;;;;;;;6.87;3.22;;;28.50;99.90;;;;;;1946718;72;22657;-80
2023/07/09 08:59:06;;;;;;;5.58;3.67;;;28.60;99.90;;;;;;1940159;73;21184;-81
2023/07/09 09:04:40;;;;;;;5.80;3.20;;;28.80;99.90;;;;;;1944959;72;22154;-79
2023/07/09 09:07:40;;;;;;;8.48;3.30;;;28.90;99.90;;;;;;1909803;75;21175;-79
2023/07/09 09:10:34;;;;;;;7.30;3.25;;;28.90;99.90;;;;;;1891275;75;21139;-79
2023/07/09 09:13:29;;;;;;;5.33;3.12;;;28.90;99.90;;;;;;1902290;75;21095;-80
2023/07/09 09:16:25;;;;;;;5.60;3.92;;;28.90;99.90;;;;;;1885453;75;21055;-80
2023/07/09 09:19:22;;;;;;;5.20;3.55;;;28.90;99.90;;;;;;1908074;75;21044;-79
2023/07/09 09:25:01;;;;;;;4.80;3.17;;;29.10;99.90;;;;;;1946263;72;22251;-79
2023/07/09 09:27:52;;;;;;;5.30;3.25;;;29.20;99.90;;;;;;1932224;73;21160;-79
2023/07/09 09:30:44;;;;;;;5.65;3.37;;;29.30;99.90;;;;;;1927753;73;21162;-79
2023/07/09 09:33:43;;;;;;;3.83;3.10;;;29.30;99.90;;;;;;1929859;73;21216;-79
2023/07/09 09:36:37;;;;;;;5.97;3.50;;;29.30;99.90;;;;;;1927271;73;21176;-79
2023/07/09 09:42:13;;;;;;;5.78;3.62;;;29.50;99.90;;;;;;1931061;72;22135;-80
2023/07/09 09:45:11;;;;;;;5.90;3.25;;;29.50;99.90;;;;;;1881178;75;21099;-80
2023/07/09 09:50:43;;;;;;;4.53;2.92;;;29.60;99.90;;;;;;1962387;72;22248;-79
2023/07/09 09:56:20;;;;;;;6.85;3.37;;;29.70;99.90;;;;;;1957355;72;22231;-80
2023/07/09 10:02:00;;;;;;;4.70;3.45;;;29.90;99.90;;;;;;1928513;72;22777;-79
2023/07/09 10:07:33;;;;;;;5.53;3.45;;;30.10;99.90;;;;;;1932154;72;22186;-80
2023/07/09 10:10:27;;;;;;;4.78;3.70;;;30.10;99.90;;;;;;1873100;75;21099;-79
2023/07/09 10:16:05;;;;;;;5.30;3.35;;;30.30;99.90;;;;;;1934327;72;22690;-79
2023/07/09 10:18:59;;;;;;;4.80;3.45;;;30.40;99.90;;;;;;1903735;75;21680;-80
2023/07/09 10:21:54;;;;;;;9.15;3.70;;;30.50;99.90;;;;;;1895800;75;21196;-79
2023/07/09 10:24:52;;;;;;;5.00;3.67;;;30.60;99.90;;;;;;1887540;75;21136;-79
2023/07/09 10:27:46;;;;;;;5.58;3.50;;;30.70;99.90;;;;;;1894655;75;21329;-79
2023/07/09 10:33:29;;;;;;;3.95;3.08;;;30.80;99.90;;;;;;1939985;72;22168;-79
2023/07/09 10:36:27;;;;;;;5.10;3.52;;;30.90;99.90;;;;;;1900003;75;21118;-80
2023/07/09 10:39:21;;;;;;;5.92;3.80;;;30.90;99.90;;;;;;1883952;76;21115;-80
2023/07/09 10:42:16;;;;;;;5.70;3.80;;;30.90;99.90;;;;;;1883992;76;21125;-80
2023/07/09 10:45:11;;;;;;;6.35;3.33;;;31.00;99.90;;;;;;1894451;75;21326;-81
2023/07/09 10:48:06;;;;;;;7.20;3.80;;;31.10;99.90;;;;;;1903380;75;21119;-80
2023/07/09 10:50:59;;;;;;;5.65;3.42;;;31.10;99.90;;;;;;1898564;75;21168;-79
2023/07/09 10:53:56;;;;;;;5.85;4.22;;;31.10;99.90;;;;;;1896731;75;21176;-80
2023/07/09 10:59:32;;;;;;;5.15;3.83;;;31.30;99.90;;;;;;1945829;72;22162;-79
2023/07/09 11:02:26;;;;;;;7.15;4.08;;;31.30;99.90;;;;;;1919083;73;21153;-79
2023/07/09 11:05:18;;;;;;;5.62;3.72;;;31.40;99.90;;;;;;1925526;73;21090;-80
2023/07/09 11:08:13;;;;;;;9.35;4.33;;;31.50;99.90;;;;;;1921849;73;21197;-79
2023/07/09 11:11:10;;;;;;;5.35;3.60;;;31.60;99.90;;;;;;1916908;75;21097;-80
2023/07/09 11:14:05;;;;;;;5.90;4.37;;;31.70;99.90;;;;;;1943028;73;21109;-80
2023/07/09 11:17:00;;;;;;;6.60;3.85;;;31.80;99.90;;;;;;1928313;73;21145;-79
2023/07/09 11:19:56;;;;;;;7.70;3.95;;;32.00;99.90;;;;;;1916955;75;21079;-79
2023/07/09 11:22:53;;;;;;;8.00;3.70;;;31.90;99.90;;;;;;1917030;75;21085;-79
2023/07/09 11:25:47;;;;;;;5.15;3.58;;;31.90;99.90;;;;;;1916996;75;21204;-78
2023/07/09 11:28:41;;;;;;;6.75;3.92;;;32.00;99.90;;;;;;1939781;73;21615;-79
2023/07/09 11:31:38;;;;;;;4.65;3.83;;;32.10;99.90;;;;;;1916847;75;21142;-79
2023/07/09 11:34:30;;;;;;;8.68;3.75;;;32.30;99.90;;;;;;1916832;75;21118;-80
2023/07/09 11:37:25;;;;;;;5.03;4.10;;;32.30;99.90;;;;;;1930383;73;21554;-79
2023/07/09 11:40:20;;;;;;;6.20;3.72;;;32.30;99.90;;;;;;1918992;73;21976;-80
2023/07/09 11:43:30;;;;;;;5.65;3.85;;;32.30;99.90;;;;;;1939873;73;21223;-80
2023/07/09 11:49:10;;;;;;;5.78;3.77;;;32.40;99.90;;;;;;1957173;72;22064;-79
2023/07/09 11:52:05;;;;;;;4.08;3.35;;;32.30;99.90;;;;;;1902425;75;21114;-80
2023/07/09 11:54:55;;;;;;;4.83;3.55;;;32.40;99.90;;;;;;1905877;75;21056;-79
2023/07/09 11:57:50;;;;;;;5.12;3.70;;;32.50;99.90;;;;;;1888733;75;21094;-77
2023/07/09 12:00:43;;;;;;;6.45;3.83;;;32.60;99.90;;;;;;1894602;75;21106;-80
2023/07/09 12:03:37;;;;;;;4.72;3.72;;;32.70;99.90;;;;;;1901031;75;21115;-78
2023/07/09 12:06:32;;;;;;;4.85;3.47;;;32.60;99.90;;;;;;1895970;75;21099;-79
2023/07/09 12:09:23;;;;;;;4.58;3.70;;;32.50;99.90;;;;;;1889518;75;21091;-79
2023/07/09 12:12:24;;;;;;;4.90;3.40;;;32.70;99.90;;;;;;1891764;75;21107;-79
2023/07/09 12:15:20;;;;;;;5.62;3.58;;;32.80;99.90;;;;;;1883383;75;21202;-79
2023/07/09 12:18:16;;;;;;;6.45;3.92;;;32.90;99.90;;;;;;1883561;75;21060;-80
2023/07/09 12:21:09;;;;;;;6.08;4.10;;;33.00;99.90;;;;;;1896569;75;21475;-79
2023/07/09 12:24:02;;;;;;;4.70;3.70;;;33.00;99.90;;;;;;1894733;75;21075;-78
2023/07/09 12:26:55;;;;;;;5.55;4.20;;;32.90;99.90;;;;;;1892419;75;21177;-79
2023/07/09 12:29:47;;;;;;;7.05;4.08;;;32.90;99.90;;;;;;1884253;75;21065;-78
2023/07/09 12:32:49;;;;;;;5.17;3.70;;;33.00;99.90;;;;;;1884186;76;21106;-79
2023/07/09 12:35:41;;;;;;;5.75;4.37;;;33.00;99.90;;;;;;1895767;75;21123;-79
2023/07/09 12:38:35;;;;;;;8.00;3.65;;;33.00;99.90;;;;;;1888420;75;21065;-79
2023/07/09 12:41:29;;;;;;;5.60;3.70;;;32.90;99.90;;;;;;1886159;75;21142;-80
2023/07/09 12:44:23;;;;;;;5.83;4.15;;;32.90;99.90;;;;;;1897223;75;21135;-80
2023/07/09 12:47:16;;;;;;;6.40;4.00;;;32.90;99.90;;;;;;1884028;76;21113;-80
2023/07/09 12:50:19;;;;;;;6.62;3.92;;;33.00;99.90;;;;;;1906183;75;21164;-79
2023/07/09 12:53:17;;;;;;;6.40;3.80;;;33.10;99.90;;;;;;1906119;75;21180;-80
2023/07/09 12:56:13;;;;;;;6.47;3.83;;;33.20;99.90;;;;;;1906377;75;21135;-79
2023/07/09 12:59:07;;;;;;;3.98;3.45;;;33.20;99.90;;;;;;1899849;74;21156;-79
2023/07/09 13:04:45;;;;;;;8.38;4.33;;;33.10;99.90;;;;;;1940874;72;22257;-80
2023/07/09 13:07:38;;;;;;;7.00;3.87;;;33.20;99.90;;;;;;1917002;75;21046;-80
2023/07/09 13:10:32;;;;;;;6.78;3.75;;;33.20;99.90;;;;;;1916764;74;21118;-80
2023/07/09 13:13:26;;;;;;;4.20;3.80;;;33.20;99.90;;;;;;1875992;76;21122;-79
2023/07/09 13:16:17;;;;;;;5.78;4.12;;;33.20;99.90;;;;;;1908695;74;21090;-80
2023/07/09 13:19:09;;;;;;;8.00;4.42;;;33.30;99.90;;;;;;1912451;74;21054;-80
2023/07/09 13:22:00;;;;;;;8.93;4.08;;;33.30;99.90;;;;;;1918333;74;21950;-77
2023/07/09 13:24:52;;;;;;;5.08;3.50;;;33.40;99.90;;;;;;1902953;74;21128;-79
2023/07/09 13:27:44;;;;;;;5.25;3.80;;;33.50;99.90;;;;;;1911515;75;21146;-79
2023/07/09 13:30:36;;;;;;;5.47;3.85;;;33.60;99.90;;;;;;1918872;74;21050;-80
2023/07/09 13:33:28;;;;;;;4.25;3.45;;;33.30;99.90;;;;;;1873486;76;21185;-78
2023/07/09 13:38:58;;;;;;;10.20;4.33;;;33.30;99.90;;;;;;1942024;72;22259;-78
2023/07/09 13:41:53;;;;;;;7.17;4.15;;;33.40;99.90;;;;;;1897896;75;21191;-79
2023/07/09 13:44:46;;;;;;;5.25;3.55;;;33.50;99.90;;;;;;1901940;75;21185;-79
2023/07/09 13:52:58;;;;;;;7.22;3.98;;;33.40;99.90;;;;;;1925076;72;22313;-78
2023/07/09 13:58:33;;;;;;;7.00;4.33;;;33.70;99.90;;;;;;1926981;72;22268;-79
2023/07/09 14:01:28;;;;;;;6.78;3.87;;;33.80;99.90;;;;;;1896532;75;21254;-80
2023/07/09 14:04:32;;;;;;;6.08;3.75;;;33.90;99.90;;;;;;1905038;75;21084;-78
2023/07/09 14:07:31;;;;;;;6.37;3.70;;;34.10;99.90;;;;;;1890867;75;21159;-80
2023/07/09 14:10:22;;;;;;;7.33;3.98;;;34.50;99.90;;;;;;1884954;75;21058;-79
2023/07/09 14:13:36;;;;;;;6.25;3.80;;;34.50;99.90;;;;;;1904748;75;21151;-79
2023/07/09 14:16:33;;;;;;;5.20;3.70;;;34.50;99.90;;;;;;1839928;75;21122;-78
2023/07/09 14:19:25;;;;;;;4.65;3.55;;;34.60;99.90;;;;;;1904334;73;21102;-78
2023/07/09 14:22:27;;;;;;;4.47;3.65;;;34.70;99.90;;;;;;1907773;73;21108;-80
2023/07/09 14:25:21;;;;;;;7.30;3.85;;;34.60;99.90;;;;;;1897617;74;21107;-79
2023/07/09 14:31:22;;;;;;;5.87;3.80;;;34.50;99.90;;;;;;1936163;72;22197;-78
2023/07/09 14:34:22;;;;;;;7.70;3.92;;;34.50;99.90;;;;;;1900235;75;21107;-79
2023/07/09 14:39:52;;;;;;;5.53;3.90;;;35.30;99.20;;;;;;1935460;72;22149;-79
2023/07/09 14:42:44;;;;;;;5.97;3.83;;;35.70;98.90;;;;;;1891495;75;21263;-80
2023/07/09 14:45:36;;;;;;;4.45;3.77;;;35.60;98.40;;;;;;1899392;75;21083;-80
2023/07/09 14:48:27;;;;;;;4.55;3.60;;;36.00;97.60;;;;;;1894862;75;21102;-79
2023/07/09 14:51:19;;;;;;;4.55;3.10;;;36.20;97.00;;;;;;1901236;75;21618;-80
2023/07/09 14:54:21;;;;;;;5.45;3.40;;;36.30;96.30;;;;;;1903867;75;22203;-79
2023/07/09 14:57:20;;;;;;;4.72;3.70;;;36.50;96.00;;;;;;1887514;75;21159;-80
2023/07/09 15:00:17;;;;;;;4.85;3.27;;;36.80;95.70;;;;;;1886484;75;21201;-81
2023/07/09 15:03:11;;;;;;;7.22;3.77;;;36.80;94.60;;;;;;1910691;75;21082;-80
2023/07/09 15:08:43;;;;;;;5.55;3.75;;;37.20;93.90;;;;;;1922547;72;22202;-79
2023/07/09 15:11:34;;;;;;;6.97;3.55;;;37.30;93.40;;;;;;1887172;75;21146;-79
2023/07/09 15:14:28;;;;;;;4.90;3.70;;;37.40;93.20;;;;;;1903378;75;21578;-80
2023/07/09 15:17:19;;;;;;;5.20;3.72;;;37.40;92.60;;;;;;1912080;74;21090;-80
2023/07/09 15:20:17;;;;;;;5.95;3.27;;;37.50;92.20;;;;;;1906054;74;21589;-80
2023/07/09 15:23:10;;;;;;;4.90;3.55;;;37.50;91.70;;;;;;1912533;75;21096;-79
2023/07/09 15:26:02;;;;;;;5.65;3.45;;;37.20;91.80;;;;;;1894672;75;21098;-79
2023/07/09 15:28:53;;;;;;;5.12;3.45;;;37.20;91.50;;;;;;1904911;75;21156;-80
2023/07/09 15:31:44;;;;;;;4.55;3.60;;;37.20;91.30;;;;;;1902177;75;21563;-80
2023/07/09 15:34:36;;;;;;;4.75;3.60;;;37.50;91.00;;;;;;1883580;75;21114;-79
2023/07/09 15:37:28;;;;;;;5.47;3.25;;;37.10;90.90;;;;;;1894883;75;21047;-79
2023/07/09 15:40:22;;;;;;;7.40;3.80;;;37.30;90.70;;;;;;1892003;75;21090;-79
2023/07/09 15:43:14;;;;;;;4.70;3.45;;;37.70;90.20;;;;;;1904679;75;21176;-80
2023/07/09 15:46:05;;;;;;;4.45;3.67;;;38.10;89.10;;;;;;1895484;74;21557;-79
2023/07/09 15:48:57;;;;;;;4.55;3.52;;;38.20;87.50;;;;;;1899924;74;21169;-79
2023/07/09 15:54:29;;;;;;;6.25;3.40;;;38.70;85.00;;;;;;1945403;72;22153;-79
2023/07/09 15:59:59;;;;;;;5.45;3.52;;;39.10;84.00;;;;;;1941095;72;22246;-79
2023/07/09 16:02:53;;;;;;;5.33;3.70;;;39.30;82.90;;;;;;1896519;75;21145;-81
2023/07/09 16:05:47;;;;;;;4.15;3.47;;;39.50;81.50;;;;;;1889744;75;21167;-80
2023/07/09 16:08:38;;;;;;;5.35;3.70;;;39.50;81.00;;;;;;1901036;75;21135;-82
2023/07/09 16:14:19;;;;;;;4.58;3.60;;;39.40;80.50;;;;;;1931365;72;22189;-83
2023/07/09 16:17:12;;;;;;;3.92;3.52;;;39.80;79.80;;;;;;1895276;75;21110;-82
2023/07/09 16:20:05;;;;;;;5.22;3.75;;;40.30;78.40;;;;;;1905405;75;21109;-84
2023/07/09 16:23:08;;;;;;;5.70;3.92;;;40.50;76.50;;;;;;1899890;75;21174;-82
2023/07/09 16:25:59;;;;;;;7.47;3.67;;;40.10;77.10;;;;;;1892474;75;21145;-81
2023/07/09 16:28:50;;;;;;;7.22;3.60;;;39.90;77.10;;;;;;1904958;75;21197;-81
2023/07/09 16:31:41;;;;;;;3.83;3.42;;;40.10;76.80;;;;;;1910017;75;21195;-81
2023/07/09 16:34:34;;;;;;;5.78;3.87;;;40.30;76.40;;;;;;1903387;75;21156;-82
2023/07/09 16:37:26;;;;;;;7.58;3.62;;;40.10;76.20;;;;;;1902066;75;21091;-82
2023/07/09 16:40:22;;;;;;;4.55;3.50;;;40.40;75.00;;;;;;1884606;75;21200;-81
2023/07/09 16:45:54;;;;;;;5.22;3.40;;;40.40;73.70;;;;;;1943857;72;22260;-81
2023/07/09 16:48:45;;;;;;;5.28;3.72;;;40.30;74.20;;;;;;1898356;75;21178;-81
2023/07/09 16:51:36;;;;;;;6.03;3.47;;;40.20;74.40;;;;;;1908161;75;21542;-81
2023/07/09 16:54:27;;;;;;;4.72;3.80;;;41.10;72.10;;;;;;1909784;74;21160;-83
2023/07/09 16:57:22;;;;;;;4.10;3.60;;;40.70;72.50;;;;;;1899827;73;21147;-83
2023/07/09 17:00:23;;;;;;;5.22;3.92;;;41.20;71.90;;;;;;1898758;75;21050;-82
2023/07/09 17:05:53;;;;;;;7.00;3.75;;;40.70;70.80;;;;;;1931089;72;22249;-83
2023/07/09 17:08:45;;;;;;;5.12;3.42;;;40.50;70.50;;;;;;1881546;75;21103;-81
2023/07/09 17:11:38;;;;;;;5.58;3.70;;;40.60;69.90;;;;;;1875466;75;21111;-82
2023/07/09 17:14:29;;;;;;;3.95;3.08;;;40.20;70.30;;;;;;1882690;75;21087;-81
2023/07/09 17:20:04;;;;;;;3.85;3.30;;;39.50;71.00;;;;;;1942828;72;22141;-81
2023/07/09 17:25:41;;;;;;;3.30;3.00;;;39.60;71.90;;;;;;1942525;72;22190;-83
2023/07/09 17:28:33;;;;;;;3.60;3.12;;;39.50;72.90;;;;;;1931305;73;21078;-82
2023/07/09 17:34:04;;;;;;;3.55;3.15;;;38.80;73.20;;;;;;1934417;72;22214;-82
2023/07/09 17:36:56;;;;;;;3.85;3.40;;;38.40;74.00;;;;;;1901232;74;21144;-83
2023/07/09 17:42:27;;;;;;;6.20;3.17;;;37.60;75.30;;;;;;1924775;72;22263;-81
2023/07/09 17:45:20;;;;;;;4.75;3.25;;;37.40;75.20;;;;;;1893073;74;21140;-81
2023/07/09 17:48:16;;;;;;;4.22;3.42;;;37.20;75.60;;;;;;1915110;74;21129;-81
2023/07/09 17:51:08;;;;;;;5.40;3.30;;;37.10;76.20;;;;;;1898351;74;21101;-82
2023/07/09 17:54:00;;;;;;;7.00;3.52;;;37.20;76.70;;;;;;1901844;75;21160;-81
2023/07/09 17:59:32;;;;;;;5.55;3.02;;;37.30;76.40;;;;;;1948598;72;22298;-83
2023/07/09 18:02:26;;;;;;;6.05;3.50;;;37.10;76.90;;;;;;1891412;75;21102;-83
2023/07/09 18:05:26;;;;;;;5.37;3.35;;;37.10;76.80;;;;;;1903514;75;21228;-83
2023/07/09 18:10:57;;;;;;;3.83;3.20;;;37.20;76.50;;;;;;1938538;72;22529;-81
2023/07/09 18:13:49;;;;;;;4.10;3.05;;;37.10;77.40;;;;;;1906263;75;21157;-81
2023/07/09 18:16:40;;;;;;;4.83;3.47;;;36.80;77.60;;;;;;1904666;75;21114;-81
2023/07/09 18:19:31;;;;;;;8.00;3.52;;;36.60;78.40;;;;;;1901897;75;21156;-81
2023/07/09 18:25:01;;;;;;;5.22;3.20;;;36.20;78.30;;;;;;1937889;72;22278;-82
2023/07/09 18:27:55;;;;;;;4.92;3.25;;;35.90;79.20;;;;;;1894758;75;21121;-83
2023/07/09 18:30:46;;;;;;;7.45;3.60;;;35.80;79.20;;;;;;1902828;75;21134;-82
2023/07/09 18:33:39;;;;;;;7.37;3.58;;;35.60;80.10;;;;;;1899144;75;21165;-81
2023/07/09 18:36:30;;;;;;;5.08;3.25;;;35.20;80.50;;;;;;1902956;75;21086;-82
2023/07/09 18:42:01;;;;;;;5.28;3.42;;;34.20;82.10;;;;;;1917171;72;22628;-83